Time;durP1;ratioP1;P1;durP2;ratioP2;P2;SDS_P1;SDS_P2;PMS_P1;PMS_P2;Temp;Humidity;BMP_temperature;BMP_pressure;BME280_temperature;BME280_humidity;BME280_pressure;Samples;Min_cycle;Max_cycle;Signal;HPM_P1;HPM_P2
2021/11/28 00:00:47;;;;;;;1.58;0.90;;;2.70;99.10;;;;;;5053516;28;20165;-83
2021/11/28 00:03:16;;;;;;;4.50;2.43;;;2.80;99.10;;;;;;5036828;28;20710;-83
2021/11/28 00:05:46;;;;;;;0.60;0.50;;;2.70;99.10;;;;;;5036694;28;20447;-84
2021/11/28 00:08:20;;;;;;;1.00;0.45;;;2.70;99.10;;;;;;5036592;28;20161;-83
2021/11/28 00:11:17;;;;;;;1.40;1.40;;;2.70;99.10;;;;;;5036696;28;20169;-83
2021/11/28 00:13:49;;;;;;;1.70;0.80;;;2.60;99.10;;;;;;5036542;28;20180;-83
2021/11/28 00:16:16;;;;;;;2.15;1.70;;;2.60;99.10;;;;;;5036419;28;20177;-83
2021/11/28 00:18:42;;;;;;;1.20;1.08;;;2.50;99.10;;;;;;5036702;28;20556;-83
2021/11/28 00:21:09;;;;;;;0.70;0.60;;;2.40;99.10;;;;;;5036618;28;20629;-83
2021/11/28 00:23:35;;;;;;;0.60;0.50;;;2.40;99.10;;;;;;5036581;28;20183;-84
2021/11/28 00:26:02;;;;;;;3.75;1.45;;;2.40;99.10;;;;;;5036200;28;20173;-83
2021/11/28 00:28:28;;;;;;;0.88;0.80;;;2.30;99.10;;;;;;5036356;28;20695;-83
2021/11/28 00:30:54;;;;;;;1.50;1.40;;;2.30;99.10;;;;;;5036338;28;20169;-84
2021/11/28 00:33:20;;;;;;;0.90;0.80;;;2.30;99.10;;;;;;5036343;28;20244;-83
2021/11/28 00:35:46;;;;;;;0.80;0.70;;;2.30;99.10;;;;;;5036463;28;20197;-83
2021/11/28 00:38:12;;;;;;;3.90;1.45;;;2.30;99.10;;;;;;5036039;28;20495;-83
2021/11/28 00:40:38;;;;;;;1.63;1.40;;;2.30;99.10;;;;;;5036181;28;20264;-83
2021/11/28 00:43:04;;;;;;;6.57;1.95;;;2.30;99.10;;;;;;5035449;28;20407;-84
2021/11/28 00:45:29;;;;;;;1.60;1.37;;;2.20;99.10;;;;;;5036221;28;20205;-83
2021/11/28 00:47:56;;;;;;;0.60;0.50;;;2.30;99.10;;;;;;5036198;28;20968;-83
2021/11/28 00:52:47;;;;;;;1.43;1.30;;;2.30;99.10;;;;;;5054088;28;20165;-83
2021/11/28 00:55:13;;;;;;;7.13;2.13;;;2.20;99.10;;;;;;5035955;28;20636;-83
2021/11/28 00:57:39;;;;;;;1.80;1.03;;;2.20;99.10;;;;;;5036148;28;20931;-83
2021/11/28 01:00:08;;;;;;;1.23;1.00;;;2.30;99.10;;;;;;5114484;23;20856;-81
2021/11/28 01:02:35;;;;;;;1.20;1.10;;;2.40;99.10;;;;;;5056838;28;20168;-81
2021/11/28 01:05:02;;;;;;;0.45;0.38;;;2.30;99.10;;;;;;5057270;28;20249;-82
2021/11/28 01:07:29;;;;;;;3.45;0.85;;;2.30;99.10;;;;;;5056385;28;20188;-81
2021/11/28 01:09:55;;;;;;;2.38;1.35;;;2.30;99.10;;;;;;5056686;28;20228;-81
2021/11/28 01:12:22;;;;;;;1.00;0.90;;;2.30;99.10;;;;;;5056343;28;20281;-82
2021/11/28 01:14:49;;;;;;;1.63;1.60;;;2.30;99.10;;;;;;5056712;28;20207;-82
2021/11/28 01:17:15;;;;;;;4.32;1.85;;;2.30;99.10;;;;;;5056455;28;20658;-81
2021/11/28 01:19:41;;;;;;;6.23;1.03;;;2.20;99.10;;;;;;5056774;28;20335;-82
2021/11/28 01:22:10;;;;;;;0.50;0.50;;;2.30;99.10;;;;;;5057153;28;20407;-81
2021/11/28 01:24:37;;;;;;;0.70;0.60;;;2.30;99.10;;;;;;5057009;28;20172;-81
2021/11/28 01:27:06;;;;;;;1.02;0.93;;;2.30;99.10;;;;;;5057025;28;20181;-82
2021/11/28 01:29:31;;;;;;;1.33;1.23;;;2.40;99.10;;;;;;5056962;28;20196;-81
2021/11/28 01:32:01;;;;;;;1.80;0.93;;;2.40;99.10;;;;;;5056651;28;20168;-81
2021/11/28 01:34:28;;;;;;;0.95;0.90;;;2.30;99.10;;;;;;5055984;28;20439;-81
2021/11/28 01:36:54;;;;;;;1.80;1.70;;;2.40;99.10;;;;;;5056580;28;20250;-81
2021/11/28 01:39:21;;;;;;;0.82;0.73;;;2.30;99.10;;;;;;5056145;28;20246;-81
2021/11/28 01:41:47;;;;;;;1.42;1.05;;;2.20;99.10;;;;;;5056813;28;20175;-82
2021/11/28 01:44:14;;;;;;;0.80;0.73;;;2.30;99.10;;;;;;5057096;28;20675;-82
2021/11/28 01:46:39;;;;;;;4.82;1.63;;;2.30;99.10;;;;;;5056438;28;20168;-81
2021/11/28 01:49:07;;;;;;;1.30;1.20;;;2.30;99.10;;;;;;5055913;28;20204;-80
2021/11/28 01:51:34;;;;;;;1.02;0.93;;;2.40;99.10;;;;;;5055932;28;20172;-80
2021/11/28 01:54:01;;;;;;;1.15;1.02;;;2.50;99.10;;;;;;5056527;28;20176;-81
2021/11/28 01:56:27;;;;;;;1.02;0.70;;;2.50;99.10;;;;;;5060234;28;20537;-82
2021/11/28 01:58:53;;;;;;;0.80;0.70;;;2.50;99.10;;;;;;5060885;28;20561;-82
2021/11/28 02:01:20;;;;;;;4.10;1.48;;;2.60;99.10;;;;;;5060057;28;20167;-82
2021/11/28 02:03:47;;;;;;;0.93;0.82;;;2.60;99.10;;;;;;5060199;28;20169;-82
2021/11/28 02:06:17;;;;;;;0.80;0.70;;;2.60;99.10;;;;;;5059493;28;20176;-82
2021/11/28 02:08:44;;;;;;;1.77;1.73;;;2.60;99.10;;;;;;5059730;28;20253;-81
2021/11/28 02:11:11;;;;;;;1.27;1.23;;;2.60;99.10;;;;;;5078258;28;20179;-81
2021/11/28 02:13:37;;;;;;;2.35;1.05;;;2.70;99.10;;;;;;5060070;28;20188;-81
2021/11/28 02:16:03;;;;;;;0.98;0.88;;;2.70;99.10;;;;;;5059884;28;20290;-82
2021/11/28 02:18:29;;;;;;;0.93;0.82;;;2.70;99.10;;;;;;5059605;28;20210;-82
2021/11/28 02:21:01;;;;;;;1.10;1.00;;;2.70;99.10;;;;;;5059970;28;20259;-81
2021/11/28 02:23:27;;;;;;;0.60;0.50;;;2.70;99.10;;;;;;5059656;28;20399;-82
2021/11/28 02:26:00;;;;;;;0.68;0.57;;;2.70;99.10;;;;;;5059866;28;20199;-82
2021/11/28 02:28:27;;;;;;;1.55;1.30;;;2.80;99.10;;;;;;5059885;28;20200;-82
2021/11/28 02:30:53;;;;;;;6.43;3.13;;;2.70;99.10;;;;;;5059693;28;20169;-81
2021/11/28 02:33:18;;;;;;;1.55;1.45;;;2.70;99.10;;;;;;5060756;28;20180;-81
2021/11/28 02:35:44;;;;;;;0.40;0.40;;;2.80;99.10;;;;;;5060001;28;20253;-81
2021/11/28 02:38:11;;;;;;;1.40;1.20;;;2.80;99.10;;;;;;5059060;28;20403;-81
2021/11/28 02:40:39;;;;;;;1.13;1.05;;;2.80;99.10;;;;;;5059649;28;20172;-82
2021/11/28 02:43:05;;;;;;;0.98;0.90;;;2.90;99.10;;;;;;5060293;28;20169;-81
2021/11/28 02:45:32;;;;;;;6.43;2.95;;;2.90;99.10;;;;;;5059292;28;20202;-82
2021/11/28 02:48:00;;;;;;;0.70;0.60;;;2.90;99.10;;;;;;5060595;28;20234;-82
2021/11/28 02:50:26;;;;;;;0.82;0.73;;;3.00;99.10;;;;;;5059995;28;20246;-82
2021/11/28 02:52:55;;;;;;;2.33;1.65;;;3.00;99.10;;;;;;5060076;28;20184;-82
2021/11/28 02:56:00;;;;;;;0.50;0.50;;;3.00;99.10;;;;;;5059865;28;20203;-82
2021/11/28 02:58:26;;;;;;;0.85;0.77;;;2.90;99.10;;;;;;5059952;28;20195;-81
2021/11/28 03:01:18;;;;;;;1.23;1.13;;;2.90;99.10;;;;;;5059498;28;20547;-82
2021/11/28 03:03:45;;;;;;;4.63;1.20;;;3.00;99.10;;;;;;5058433;28;20497;-82
2021/11/28 03:06:10;;;;;;;0.82;0.80;;;3.00;99.10;;;;;;5057946;28;20172;-82
2021/11/28 03:08:37;;;;;;;0.80;0.70;;;2.90;99.10;;;;;;5058684;28;20188;-82
2021/11/28 03:11:04;;;;;;;1.50;1.40;;;3.00;99.10;;;;;;5058660;28;20176;-81
2021/11/28 03:13:39;;;;;;;0.98;0.88;;;3.00;99.10;;;;;;5059088;28;20177;-82
2021/11/28 03:16:12;;;;;;;0.80;0.70;;;3.00;99.10;;;;;;5058546;28;20517;-82
2021/11/28 03:18:39;;;;;;;0.60;0.60;;;3.10;99.10;;;;;;5059614;28;20196;-82
2021/11/28 03:21:14;;;;;;;0.70;0.60;;;3.10;99.10;;;;;;5059304;28;20173;-82
2021/11/28 03:23:41;;;;;;;5.40;2.00;;;3.10;99.10;;;;;;5058340;28;20202;-81
2021/11/28 03:26:21;;;;;;;2.35;1.25;;;3.10;99.10;;;;;;5057904;28;20169;-82
2021/11/28 03:28:51;;;;;;;0.75;0.75;;;3.10;99.10;;;;;;5058889;28;20196;-82
2021/11/28 03:31:18;;;;;;;0.70;0.60;;;3.10;99.10;;;;;;5059271;28;20169;-81
2021/11/28 03:33:44;;;;;;;0.68;0.57;;;3.10;99.10;;;;;;5058764;28;20575;-82
2021/11/28 03:36:13;;;;;;;4.10;1.88;;;3.10;99.10;;;;;;5058817;28;20189;-81
2021/11/28 03:38:41;;;;;;;1.02;0.80;;;3.10;99.10;;;;;;5058117;28;20245;-81
2021/11/28 03:41:08;;;;;;;7.97;2.67;;;3.10;99.10;;;;;;5058466;28;20180;-81
2021/11/28 03:43:35;;;;;;;0.60;0.60;;;3.10;99.10;;;;;;5057920;28;20263;-81
2021/11/28 03:46:00;;;;;;;0.60;0.50;;;3.10;98.90;;;;;;5057812;28;20183;-82
2021/11/28 03:48:26;;;;;;;1.00;0.50;;;3.10;98.70;;;;;;5058101;28;20739;-82
2021/11/28 03:50:52;;;;;;;1.13;1.03;;;3.10;98.70;;;;;;5058179;28;20438;-82
2021/11/28 03:53:18;;;;;;;1.77;1.50;;;3.00;98.70;;;;;;5057808;28;20464;-82
2021/11/28 03:55:43;;;;;;;1.00;0.90;;;3.00;99.10;;;;;;5057337;28;21028;-81
2021/11/28 03:58:10;;;;;;;1.80;1.70;;;2.90;99.00;;;;;;5057455;28;20257;-82
2021/11/28 04:00:37;;;;;;;0.50;0.45;;;2.90;99.10;;;;;;5057618;28;20176;-81
2021/11/28 04:03:04;;;;;;;0.82;0.73;;;2.90;99.10;;;;;;5057482;28;20627;-81
2021/11/28 04:05:30;;;;;;;0.60;0.50;;;2.90;99.10;;;;;;5057643;28;20224;-81
2021/11/28 04:07:56;;;;;;;2.45;1.88;;;2.90;99.10;;;;;;5057160;28;20177;-82
2021/11/28 04:10:22;;;;;;;1.27;1.23;;;2.80;99.10;;;;;;5057305;28;20197;-81
2021/11/28 04:12:48;;;;;;;3.55;2.05;;;2.90;99.10;;;;;;5057041;28;20434;-81
2021/11/28 04:15:15;;;;;;;0.90;0.80;;;2.90;99.10;;;;;;5057493;28;20703;-81
2021/11/28 04:17:40;;;;;;;1.13;1.02;;;2.80;99.10;;;;;;5057575;28;20445;-80
2021/11/28 04:20:08;;;;;;;0.70;0.60;;;2.80;99.10;;;;;;5058192;28;20192;-81
2021/11/28 04:22:34;;;;;;;0.93;0.82;;;2.90;99.10;;;;;;5056970;28;20406;-80
2021/11/28 04:25:00;;;;;;;1.33;1.17;;;3.00;99.10;;;;;;5057073;28;20175;-81
2021/11/28 04:27:26;;;;;;;0.52;0.50;;;3.00;98.60;;;;;;5056582;28;20497;-81
2021/11/28 04:29:52;;;;;;;0.80;0.70;;;3.00;98.70;;;;;;5056835;28;20330;-81
2021/11/28 04:32:18;;;;;;;1.05;0.95;;;3.00;98.90;;;;;;5056696;28;20418;-82
2021/11/28 04:34:43;;;;;;;1.53;1.43;;;3.00;98.70;;;;;;5056345;28;20197;-81
2021/11/28 04:37:10;;;;;;;0.73;0.67;;;3.00;98.50;;;;;;5056743;28;20434;-81
2021/11/28 04:39:37;;;;;;;1.40;1.30;;;3.00;98.70;;;;;;5056899;28;20434;-81
2021/11/28 04:42:04;;;;;;;0.88;0.80;;;3.10;98.50;;;;;;5056680;28;20168;-81
2021/11/28 04:44:30;;;;;;;0.80;0.70;;;3.10;98.90;;;;;;5056957;28;20672;-80
2021/11/28 04:46:56;;;;;;;0.80;0.70;;;3.10;99.00;;;;;;5056991;28;20263;-81
2021/11/28 04:49:23;;;;;;;0.77;0.68;;;3.10;98.90;;;;;;5057100;28;20196;-81
2021/11/28 04:51:49;;;;;;;2.25;1.23;;;3.20;98.80;;;;;;5057078;28;20173;-81
2021/11/28 04:54:16;;;;;;;0.75;0.70;;;3.30;98.90;;;;;;5056563;28;20184;-81
2021/11/28 04:56:43;;;;;;;0.90;0.82;;;3.30;98.90;;;;;;5056627;28;20173;-81
2021/11/28 04:59:09;;;;;;;0.77;0.68;;;3.30;98.60;;;;;;5056598;28;20731;-81
2021/11/28 05:01:35;;;;;;;2.92;0.88;;;3.40;98.60;;;;;;5056674;28;20251;-81
2021/11/28 05:04:00;;;;;;;0.50;0.40;;;3.40;98.50;;;;;;5056725;28;20180;-82
2021/11/28 05:06:27;;;;;;;5.13;1.10;;;3.40;98.40;;;;;;5056767;28;20631;-81
2021/11/28 05:08:53;;;;;;;1.02;0.93;;;3.40;98.10;;;;;;5056608;28;20792;-82
2021/11/28 05:11:19;;;;;;;1.15;1.05;;;3.40;98.20;;;;;;5056436;28;20165;-82
2021/11/28 05:13:44;;;;;;;3.23;1.13;;;3.40;98.30;;;;;;5056268;28;20187;-82
2021/11/28 05:16:10;;;;;;;1.70;1.60;;;3.40;98.30;;;;;;5056709;28;20203;-80
2021/11/28 05:18:36;;;;;;;1.30;1.20;;;3.40;98.20;;;;;;5056204;28;20283;-82
2021/11/28 05:21:02;;;;;;;2.37;1.90;;;3.40;98.10;;;;;;5056243;28;20513;-82
2021/11/28 05:23:28;;;;;;;0.88;0.88;;;3.30;98.30;;;;;;5055951;28;20498;-82
2021/11/28 05:25:54;;;;;;;0.60;0.50;;;3.30;98.50;;;;;;5056181;28;20204;-81
2021/11/28 05:28:19;;;;;;;1.50;1.23;;;3.30;98.80;;;;;;5056078;28;20229;-80
2021/11/28 05:30:45;;;;;;;4.70;1.07;;;3.30;98.90;;;;;;5055703;28;20423;-82
2021/11/28 05:33:11;;;;;;;2.30;1.13;;;3.30;99.10;;;;;;5056065;28;20420;-81
2021/11/28 05:35:37;;;;;;;2.77;1.30;;;3.30;99.00;;;;;;5056296;28;20461;-81
2021/11/28 05:38:03;;;;;;;0.90;0.80;;;3.40;99.10;;;;;;5056025;28;20411;-82
2021/11/28 05:40:29;;;;;;;0.70;0.60;;;3.40;99.10;;;;;;5056177;28;20473;-81
2021/11/28 05:42:55;;;;;;;0.63;0.55;;;3.40;98.90;;;;;;5055998;28;20486;-81
2021/11/28 05:45:24;;;;;;;1.10;1.00;;;3.30;98.60;;;;;;5056335;28;20525;-81
2021/11/28 05:47:50;;;;;;;0.65;0.57;;;3.30;98.60;;;;;;5056274;28;20659;-82
2021/11/28 05:50:18;;;;;;;3.72;1.80;;;3.30;98.60;;;;;;5055967;28;20287;-81
2021/11/28 05:52:44;;;;;;;0.80;0.70;;;3.40;98.90;;;;;;5055998;28;20169;-81
2021/11/28 05:55:10;;;;;;;0.90;0.80;;;3.40;98.90;;;;;;5055968;28;20726;-82
2021/11/28 05:57:36;;;;;;;0.98;0.73;;;3.40;98.90;;;;;;5055870;28;20403;-81
2021/11/28 06:00:04;;;;;;;0.50;0.40;;;3.40;98.60;;;;;;5055399;28;20212;-81
2021/11/28 06:02:30;;;;;;;1.15;0.75;;;3.50;98.60;;;;;;5055675;28;20176;-80
2021/11/28 06:04:56;;;;;;;2.20;1.60;;;3.50;98.60;;;;;;5055897;28;20200;-81
2021/11/28 06:07:22;;;;;;;1.03;0.93;;;3.50;98.40;;;;;;5055450;28;20183;-81
2021/11/28 06:09:47;;;;;;;1.03;0.93;;;3.50;98.40;;;;;;5055809;28;20192;-81
2021/11/28 06:12:13;;;;;;;0.97;0.87;;;3.50;98.40;;;;;;5073732;28;20450;-81
2021/11/28 06:14:39;;;;;;;0.93;0.83;;;3.40;98.60;;;;;;5055544;28;20274;-80
2021/11/28 06:17:05;;;;;;;1.57;1.10;;;3.40;98.60;;;;;;5055700;28;20176;-80
2021/11/28 06:19:30;;;;;;;2.50;1.30;;;3.40;98.60;;;;;;5055590;28;20197;-82
2021/11/28 06:21:56;;;;;;;2.20;1.97;;;3.40;98.40;;;;;;5055452;28;20192;-81
2021/11/28 06:24:22;;;;;;;2.20;1.50;;;3.50;98.60;;;;;;5055291;28;20417;-81
2021/11/28 06:26:48;;;;;;;2.72;1.27;;;3.50;98.60;;;;;;5055711;28;20169;-81
2021/11/28 06:29:14;;;;;;;1.25;1.05;;;3.60;98.40;;;;;;5055297;28;20200;-82
2021/11/28 06:31:40;;;;;;;1.10;1.00;;;3.60;98.20;;;;;;5055842;28;20203;-82
2021/11/28 06:34:07;;;;;;;0.73;0.63;;;3.50;98.10;;;;;;5055456;28;20269;-81
2021/11/28 06:36:32;;;;;;;0.60;0.50;;;3.50;98.10;;;;;;5055738;28;20191;-81
2021/11/28 06:38:58;;;;;;;1.80;0.73;;;3.40;98.10;;;;;;5055747;28;20652;-81
2021/11/28 06:41:26;;;;;;;0.93;0.82;;;3.50;98.10;;;;;;5056677;28;20460;-82
2021/11/28 06:43:54;;;;;;;0.50;0.40;;;3.50;98.20;;;;;;5059170;28;20176;-81
2021/11/28 06:46:20;;;;;;;0.45;0.43;;;3.50;98.30;;;;;;5059385;28;20172;-82
2021/11/28 06:48:47;;;;;;;1.13;1.02;;;3.60;98.20;;;;;;5042651;28;20219;-82
2021/11/28 06:51:14;;;;;;;0.70;0.60;;;3.50;98.30;;;;;;5059117;28;20195;-82
2021/11/28 06:53:40;;;;;;;0.70;0.60;;;3.40;98.40;;;;;;5059084;28;20176;-81
2021/11/28 06:56:06;;;;;;;0.73;0.63;;;3.50;98.40;;;;;;5058798;28;20616;-82
2021/11/28 06:58:33;;;;;;;1.00;0.90;;;3.50;98.20;;;;;;5058973;28;20192;-81
2021/11/28 07:00:59;;;;;;;0.73;0.63;;;3.50;98.20;;;;;;5127413;23;20792;-80
2021/11/28 07:03:24;;;;;;;0.83;0.73;;;3.50;98.30;;;;;;5064777;28;20180;-80
2021/11/28 07:05:50;;;;;;;2.87;1.90;;;3.50;98.20;;;;;;5063956;28;20777;-81
2021/11/28 07:08:16;;;;;;;1.27;1.00;;;3.50;98.10;;;;;;5064035;28;20906;-80
2021/11/28 07:10:42;;;;;;;3.27;1.33;;;3.50;97.90;;;;;;5064452;28;20222;-80
2021/11/28 07:13:08;;;;;;;1.50;1.13;;;3.40;98.20;;;;;;5063783;28;20918;-81
2021/11/28 07:15:39;;;;;;;0.60;0.50;;;3.40;98.30;;;;;;5064626;28;20458;-81
2021/11/28 07:18:06;;;;;;;0.70;0.60;;;3.40;98.00;;;;;;5063492;28;20179;-81
2021/11/28 07:20:33;;;;;;;2.25;0.75;;;3.40;98.00;;;;;;5064467;28;20172;-82
2021/11/28 07:23:01;;;;;;;1.15;0.60;;;3.30;98.00;;;;;;5063584;28;20175;-81
2021/11/28 07:25:27;;;;;;;2.78;1.23;;;3.30;98.30;;;;;;5063454;28;20188;-80
2021/11/28 07:27:53;;;;;;;0.60;0.50;;;3.30;98.40;;;;;;5064231;28;20168;-81
2021/11/28 07:30:19;;;;;;;0.80;0.70;;;3.30;98.50;;;;;;5063490;28;20656;-81
2021/11/28 07:32:45;;;;;;;0.50;0.45;;;3.30;98.40;;;;;;5063265;28;20177;-81
2021/11/28 07:35:11;;;;;;;1.33;1.13;;;3.30;98.70;;;;;;5063414;28;20559;-81
2021/11/28 07:37:37;;;;;;;0.50;0.40;;;3.30;98.30;;;;;;5064020;28;20410;-81
2021/11/28 07:40:04;;;;;;;1.20;0.80;;;3.30;98.60;;;;;;5064150;28;20192;-80
2021/11/28 07:42:30;;;;;;;1.10;1.10;;;3.40;98.60;;;;;;5063613;28;20411;-81
2021/11/28 07:44:56;;;;;;;2.63;1.23;;;3.40;98.30;;;;;;5082263;28;20183;-81
2021/11/28 07:47:22;;;;;;;1.55;1.45;;;3.40;98.10;;;;;;5063866;28;20183;-81
2021/11/28 07:49:47;;;;;;;2.72;1.35;;;3.40;98.10;;;;;;5063562;28;20683;-81
2021/11/28 07:52:13;;;;;;;1.00;0.90;;;3.40;98.40;;;;;;5063917;28;20173;-81
2021/11/28 07:54:39;;;;;;;1.23;1.13;;;3.40;98.40;;;;;;5063428;28;20498;-81
2021/11/28 07:57:05;;;;;;;0.73;0.50;;;3.30;98.50;;;;;;5063226;28;20975;-81
2021/11/28 07:59:35;;;;;;;1.67;0.80;;;3.40;98.60;;;;;;5063552;28;20676;-81
2021/11/28 08:02:02;;;;;;;1.20;1.15;;;3.40;98.80;;;;;;5062938;28;20181;-81
2021/11/28 08:04:27;;;;;;;3.90;2.50;;;3.30;98.70;;;;;;5063125;28;20196;-81
2021/11/28 08:06:53;;;;;;;5.40;1.17;;;3.20;98.80;;;;;;5063043;28;20655;-81
2021/11/28 08:09:19;;;;;;;6.10;1.70;;;3.20;98.80;;;;;;5062902;28;20547;-81
2021/11/28 08:11:45;;;;;;;0.87;0.77;;;3.20;98.90;;;;;;5061882;28;20419;-80
2021/11/28 08:14:11;;;;;;;0.70;0.60;;;3.10;98.90;;;;;;5062688;28;20758;-81
2021/11/28 08:16:39;;;;;;;2.75;1.83;;;3.10;99.10;;;;;;5062709;28;20426;-81
2021/11/28 08:19:05;;;;;;;0.65;0.63;;;3.20;99.10;;;;;;5063081;28;20710;-82
2021/11/28 08:21:31;;;;;;;1.70;0.82;;;3.30;99.10;;;;;;5062787;28;20202;-81
2021/11/28 08:23:58;;;;;;;1.20;0.93;;;3.40;99.10;;;;;;5062618;28;20212;-82
2021/11/28 08:26:26;;;;;;;0.95;0.93;;;3.40;98.90;;;;;;5062127;28;20183;-81
2021/11/28 08:28:52;;;;;;;1.35;1.27;;;3.50;98.90;;;;;;5063033;28;20196;-81
2021/11/28 08:31:18;;;;;;;0.73;0.63;;;3.50;98.70;;;;;;5063699;28;20206;-82
2021/11/28 08:33:44;;;;;;;6.10;2.03;;;3.50;98.50;;;;;;5062564;28;20406;-81
2021/11/28 08:36:10;;;;;;;0.77;0.67;;;3.50;98.20;;;;;;5062576;28;20545;-80
2021/11/28 08:38:42;;;;;;;0.90;0.80;;;3.50;97.90;;;;;;5062205;28;20458;-80
2021/11/28 08:41:12;;;;;;;1.25;0.82;;;3.50;98.20;;;;;;5062691;28;20418;-81
2021/11/28 08:43:39;;;;;;;2.05;1.17;;;3.50;98.20;;;;;;5061593;28;20229;-81
2021/11/28 08:46:05;;;;;;;0.90;0.80;;;3.40;97.80;;;;;;5080129;28;20177;-81
2021/11/28 08:48:32;;;;;;;0.60;0.57;;;3.40;97.90;;;;;;5061676;28;20200;-81
2021/11/28 08:50:58;;;;;;;1.73;1.10;;;3.50;97.90;;;;;;5062320;28;20169;-81
2021/11/28 08:53:24;;;;;;;1.27;0.98;;;3.50;97.90;;;;;;5062728;28;20184;-80
2021/11/28 08:55:50;;;;;;;1.03;0.80;;;3.50;97.60;;;;;;5061970;28;20200;-81
2021/11/28 08:58:16;;;;;;;1.17;1.07;;;3.50;98.00;;;;;;5054092;28;20767;-81
2021/11/28 09:00:42;;;;;;;1.20;1.20;;;3.60;97.80;;;;;;5045155;28;20200;-81
2021/11/28 09:03:08;;;;;;;0.93;0.82;;;3.50;97.70;;;;;;5062992;28;20168;-81
2021/11/28 09:05:34;;;;;;;3.25;1.40;;;3.50;97.60;;;;;;5055258;28;20674;-81
2021/11/28 09:08:03;;;;;;;2.78;0.85;;;3.60;97.50;;;;;;5043167;28;20653;-81
2021/11/28 09:10:30;;;;;;;3.78;1.80;;;3.70;97.40;;;;;;5043498;28;20596;-81
2021/11/28 09:12:57;;;;;;;0.98;0.82;;;3.70;97.70;;;;;;5068338;28;20268;-81
2021/11/28 09:15:25;;;;;;;4.00;1.15;;;3.80;97.80;;;;;;5064486;28;20239;-80
2021/11/28 09:17:57;;;;;;;1.77;1.42;;;3.90;97.20;;;;;;5062663;28;20176;-81
2021/11/28 09:20:24;;;;;;;3.80;1.20;;;4.00;97.30;;;;;;5062953;28;20196;-81
2021/11/28 09:25:18;;;;;;;0.70;0.50;;;4.00;96.60;;;;;;5080624;28;20169;-81
2021/11/28 09:27:46;;;;;;;2.72;1.42;;;4.10;96.40;;;;;;5061492;28;20169;-81
2021/11/28 09:30:21;;;;;;;4.00;3.85;;;4.20;96.30;;;;;;5062191;28;20195;-81
2021/11/28 09:32:47;;;;;;;2.38;0.95;;;4.30;95.90;;;;;;5042185;28;20624;-81
2021/11/28 09:35:13;;;;;;;1.10;1.00;;;4.30;96.20;;;;;;5045785;28;20193;-81
2021/11/28 09:37:39;;;;;;;10.27;2.05;;;4.40;96.20;;;;;;5061144;28;20185;-80
2021/11/28 09:40:06;;;;;;;1.00;0.90;;;4.40;96.30;;;;;;5061783;28;20680;-79
2021/11/28 09:42:50;;;;;;;0.73;0.63;;;4.40;95.90;;;;;;5062365;28;20406;-80
2021/11/28 09:45:15;;;;;;;2.63;2.25;;;4.40;96.20;;;;;;5060570;28;20175;-79
2021/11/28 09:47:44;;;;;;;7.53;1.27;;;4.40;96.10;;;;;;5061175;28;20210;-80
2021/11/28 09:50:10;;;;;;;0.90;0.80;;;4.50;96.20;;;;;;5060816;28;20192;-79
2021/11/28 09:52:38;;;;;;;0.60;0.50;;;4.50;95.30;;;;;;5062219;28;20172;-81
2021/11/28 09:55:10;;;;;;;3.53;1.20;;;4.50;95.00;;;;;;5062568;28;20200;-80
2021/11/28 09:57:38;;;;;;;1.15;1.05;;;4.60;94.80;;;;;;5060049;28;20189;-80
2021/11/28 10:00:08;;;;;;;1.65;1.50;;;4.60;95.00;;;;;;5077656;28;20204;-82
2021/11/28 10:02:36;;;;;;;1.13;1.02;;;4.60;94.30;;;;;;5062698;28;20628;-79
2021/11/28 10:05:05;;;;;;;4.30;0.95;;;4.70;93.90;;;;;;5062346;28;20177;-79
2021/11/28 10:07:31;;;;;;;1.70;1.60;;;4.70;94.40;;;;;;5060844;28;20173;-80
2021/11/28 10:09:58;;;;;;;1.53;1.43;;;4.90;93.40;;;;;;5061498;28;20188;-84
2021/11/28 10:12:29;;;;;;;1.58;0.77;;;4.80;92.80;;;;;;5063819;28;20419;-81
2021/11/28 10:14:56;;;;;;;1.70;1.60;;;4.80;92.80;;;;;;5064786;28;20609;-83
2021/11/28 10:17:28;;;;;;;2.13;1.58;;;4.80;93.30;;;;;;5067203;28;20169;-83
2021/11/28 10:19:58;;;;;;;1.55;1.00;;;4.80;93.40;;;;;;5068260;28;20199;-84
2021/11/28 10:22:25;;;;;;;1.33;1.23;;;4.90;93.90;;;;;;5067458;28;20172;-83
2021/11/28 10:25:03;;;;;;;1.63;1.27;;;5.00;94.10;;;;;;5066345;28;20263;-84
2021/11/28 10:27:38;;;;;;;1.00;0.90;;;5.00;93.70;;;;;;5084778;28;20205;-82
2021/11/28 10:30:07;;;;;;;2.65;1.88;;;5.00;93.40;;;;;;5064430;28;20196;-83
2021/11/28 10:32:33;;;;;;;0.45;0.43;;;5.00;93.60;;;;;;5064622;28;20172;-84
2021/11/28 10:34:59;;;;;;;1.25;1.15;;;5.10;94.10;;;;;;5065400;28;20199;-84
2021/11/28 10:37:25;;;;;;;0.93;0.83;;;5.10;93.50;;;;;;5065550;28;20177;-85
2021/11/28 10:39:58;;;;;;;1.60;0.70;;;5.20;92.90;;;;;;5066179;28;20430;-83
2021/11/28 10:42:30;;;;;;;1.08;0.98;;;5.30;93.40;;;;;;5066486;28;20176;-83
2021/11/28 10:45:16;;;;;;;2.00;1.60;;;5.30;92.80;;;;;;5066808;28;20301;-82
2021/11/28 10:47:46;;;;;;;1.17;1.08;;;5.30;92.10;;;;;;5066299;28;20195;-83
2021/11/28 10:50:28;;;;;;;1.15;1.05;;;5.40;92.00;;;;;;5083792;28;20193;-83
2021/11/28 10:53:10;;;;;;;0.90;0.88;;;5.40;92.90;;;;;;5067770;28;20169;-81
2021/11/28 10:55:42;;;;;;;0.68;0.57;;;5.40;92.10;;;;;;5066940;28;20291;-82
2021/11/28 10:58:25;;;;;;;1.23;0.98;;;5.40;91.30;;;;;;5067608;28;20244;-83
2021/11/28 11:00:51;;;;;;;4.25;1.73;;;5.30;91.30;;;;;;5062363;28;20195;-87
2021/11/28 11:03:30;;;;;;;5.20;1.70;;;5.30;92.20;;;;;;5062030;28;20264;-86
2021/11/28 11:06:21;;;;;;;1.25;0.90;;;5.40;92.70;;;;;;5063522;28;20168;-90
2021/11/28 11:08:53;;;;;;;4.82;1.52;;;5.50;91.30;;;;;;5060798;28;20214;-88
2021/11/28 11:11:19;;;;;;;1.50;1.42;;;5.50;91.00;;;;;;5061318;28;20169;-88
2021/11/28 11:14:03;;;;;;;1.17;0.90;;;5.60;91.20;;;;;;5063452;28;20457;-86
2021/11/28 11:16:40;;;;;;;2.55;2.35;;;5.60;90.10;;;;;;5061330;28;20457;-87
2021/11/28 11:19:31;;;;;;;0.70;0.60;;;5.60;91.40;;;;;;5063238;28;20192;-85
2021/11/28 11:22:15;;;;;;;0.88;0.77;;;5.70;90.70;;;;;;5066297;28;20168;-86
2021/11/28 11:24:51;;;;;;;0.60;0.50;;;5.70;91.80;;;;;;5063835;28;20173;-82
2021/11/28 11:27:21;;;;;;;2.28;1.08;;;5.70;90.70;;;;;;5064740;28;20179;-84
2021/11/28 11:29:49;;;;;;;0.90;0.85;;;5.70;90.50;;;;;;5066842;28;20196;-83
2021/11/28 11:32:20;;;;;;;1.25;1.15;;;5.70;90.50;;;;;;5066129;28;20240;-85
2021/11/28 11:34:57;;;;;;;2.17;2.03;;;5.70;91.60;;;;;;5065284;28;20193;-85
2021/11/28 11:37:26;;;;;;;1.33;1.25;;;5.80;92.90;;;;;;5064763;28;20238;-81
2021/11/28 11:39:55;;;;;;;1.27;1.10;;;5.80;91.60;;;;;;5073601;28;20199;-83
2021/11/28 11:42:23;;;;;;;1.73;1.27;;;5.80;90.80;;;;;;5068751;28;20169;-84
2021/11/28 11:44:50;;;;;;;1.05;1.02;;;5.80;91.30;;;;;;5072931;28;20173;-84
2021/11/28 11:47:17;;;;;;;0.93;0.77;;;5.80;91.50;;;;;;5070914;28;20214;-82
2021/11/28 11:49:43;;;;;;;2.42;1.60;;;5.80;91.40;;;;;;5069902;28;20192;-81
2021/11/28 11:52:10;;;;;;;0.77;0.63;;;5.80;91.50;;;;;;5070772;28;20294;-82
2021/11/28 11:54:43;;;;;;;1.17;1.08;;;5.80;91.20;;;;;;5069755;28;20208;-81
2021/11/28 11:57:23;;;;;;;1.60;1.40;;;5.90;91.90;;;;;;5071869;28;20204;-82
2021/11/28 12:00:13;;;;;;;1.30;1.20;;;6.00;91.60;;;;;;5072075;28;20297;-82
2021/11/28 12:02:45;;;;;;;0.85;0.75;;;6.00;90.50;;;;;;5072630;28;20198;-82
2021/11/28 12:05:26;;;;;;;2.97;1.38;;;5.90;90.90;;;;;;5071048;28;20200;-82
2021/11/28 12:07:57;;;;;;;12.52;1.40;;;6.00;91.70;;;;;;5071180;28;20210;-81
2021/11/28 12:10:43;;;;;;;1.90;1.52;;;6.00;91.50;;;;;;5071401;28;20201;-81
2021/11/28 12:13:14;;;;;;;1.50;0.85;;;6.00;91.00;;;;;;5072223;28;20175;-82
2021/11/28 12:15:50;;;;;;;1.40;1.10;;;5.90;89.60;;;;;;5072339;28;20200;-81
2021/11/28 12:18:34;;;;;;;0.85;0.75;;;5.90;89.40;;;;;;5071648;28;20164;-82
2021/11/28 12:21:04;;;;;;;2.40;1.23;;;6.00;90.60;;;;;;5071632;28;20169;-82
2021/11/28 12:23:50;;;;;;;0.70;0.60;;;6.10;91.00;;;;;;5071616;28;20228;-82
2021/11/28 12:26:25;;;;;;;0.70;0.60;;;6.10;88.70;;;;;;5072668;28;20258;-82
2021/11/28 12:28:53;;;;;;;0.80;0.70;;;6.10;89.80;;;;;;5072070;28;20218;-82
2021/11/28 12:31:34;;;;;;;1.95;1.83;;;6.10;89.90;;;;;;5071294;28;20187;-82
2021/11/28 12:34:06;;;;;;;1.05;0.95;;;6.10;89.50;;;;;;5070735;28;20176;-82
2021/11/28 12:36:32;;;;;;;2.47;1.60;;;6.10;87.80;;;;;;5071422;28;20254;-82
2021/11/28 12:39:09;;;;;;;1.27;1.17;;;6.10;88.30;;;;;;5071296;28;20219;-81
2021/11/28 12:41:48;;;;;;;0.80;0.73;;;6.10;88.90;;;;;;5071652;28;20168;-81
2021/11/28 12:44:24;;;;;;;2.30;2.10;;;6.20;88.90;;;;;;5072110;28;20172;-81
2021/11/28 12:46:51;;;;;;;0.90;0.88;;;6.20;87.80;;;;;;5071459;28;20168;-81
2021/11/28 12:49:53;;;;;;;5.65;1.80;;;6.20;89.80;;;;;;5070946;28;20192;-81
2021/11/28 12:52:26;;;;;;;1.52;1.48;;;6.30;89.20;;;;;;5071470;28;20249;-81
2021/11/28 12:55:10;;;;;;;2.35;1.65;;;6.30;90.80;;;;;;5070860;28;20230;-81
2021/11/28 12:57:44;;;;;;;1.95;1.17;;;6.30;90.60;;;;;;5071321;28;20177;-81
2021/11/28 13:00:30;;;;;;;3.45;0.95;;;6.30;90.10;;;;;;5071057;28;20683;-81
2021/11/28 13:03:08;;;;;;;0.98;0.68;;;6.30;88.90;;;;;;5065945;28;20176;-81
2021/11/28 13:05:41;;;;;;;1.17;1.00;;;6.20;88.80;;;;;;5066082;28;20179;-81
2021/11/28 13:08:06;;;;;;;0.80;0.63;;;6.20;88.80;;;;;;5065339;28;20209;-81
2021/11/28 13:10:39;;;;;;;2.90;2.03;;;6.20;89.20;;;;;;5065642;28;20263;-80